Kezdőlap
METAR-TAF:

METAR-TAF

Repülőterek :

Payson, Arizona, Amerikai Egyesült Államok

földrajzi szélesség: 34-15-25N, földrajzi hosszúság: 111-20-21W, magasság: 1572 m

Jelenlegi meteorológiai megfigyelések

A jelentés 21 perccel ezelõtt készült, 12:55 UTC
Szélcsend
Hőmérséklet 11°C
Páratartalom 35%
Légköri nyomás 1021 hPa
Látótávolság: 16.1 km
Derült ég

METAR: KPAN 271255Z AUTO 00000KT 10SM CLR 11/M04 A3015 RMK AO2 PWINO TSNO

Idő: 06:16 (13:16 UTC)


TAF: hiányzik

Meteorológiai megfigyelések és előrejelzések több, mint 4000 repülőtéren (METAR és TAF jelentéseket).

A térképen piros és sárga pontok jelzik az elérhető meteorológiai állomásokat.

Mozgassa az egeret a pont fölött, hogy megjelenjen az állomás neve.

Azután kattintson az időjárási megfigyelések és előrejelzések megtekintéséhez.

A térkép megváltoztatása: kattintson a fekete keresztel jelölt zöld gombra ráközelítéshez, a vonallal jelölt zöld gombra távolításhoz, vagy a zöld nyilakra a szomszédos térképek eléréséhez.


METAR-TAF: